createdAt,value
2017-11-18T00:01:49.034Z,32.73
2017-11-18T00:04:15.615Z,32.43
2017-11-18T00:06:42.252Z,33.97
2017-11-18T00:09:08.889Z,33.50
2017-11-18T00:11:35.487Z,33.43
2017-11-18T00:14:02.116Z,44.50
2017-11-18T00:16:28.716Z,48.87
2017-11-18T00:18:55.335Z,52.43
2017-11-18T00:21:21.973Z,53.07
2017-11-18T00:23:48.587Z,50.37
2017-11-18T00:26:15.250Z,46.63
2017-11-18T00:28:41.861Z,47.57
2017-11-18T00:31:08.489Z,48.90
2017-11-18T00:33:35.093Z,49.40
2017-11-18T00:36:01.723Z,49.80
2017-11-18T00:38:28.309Z,46.60
2017-11-18T00:40:54.945Z,46.00
2017-11-18T00:43:21.529Z,43.33
2017-11-18T00:45:48.165Z,44.80
2017-11-18T00:48:14.789Z,43.50
2017-11-18T00:50:41.424Z,44.77
2017-11-18T00:53:08.059Z,42.03
2017-11-18T00:55:34.698Z,45.43
2017-11-18T00:58:01.305Z,45.43
2017-11-18T01:00:27.922Z,44.70
2017-11-18T01:02:54.531Z,43.70
2017-11-18T01:05:21.159Z,44.50
2017-11-18T01:07:47.780Z,46.37
2017-11-18T01:10:14.383Z,43.70
2017-11-18T01:12:41.007Z,43.80
2017-11-18T01:15:07.603Z,44.70
2017-11-18T01:17:34.230Z,40.73
2017-11-18T01:20:00.827Z,42.83
2017-11-18T01:22:27.439Z,42.00
2017-11-18T01:24:54.078Z,43.77
2017-11-18T01:27:20.831Z,42.43
2017-11-18T01:29:47.418Z,44.70
2017-11-18T01:32:14.044Z,43.33
2017-11-18T01:34:40.660Z,46.13
2017-11-18T01:37:07.286Z,42.73
2017-11-18T01:39:33.882Z,43.43
2017-11-18T01:42:00.513Z,42.70
2017-11-18T01:44:27.106Z,44.27
2017-11-18T01:46:53.756Z,43.97
2017-11-18T01:49:20.377Z,44.13
2017-11-18T01:51:47.028Z,41.63
2017-11-18T01:54:13.615Z,43.40
2017-11-18T01:56:40.210Z,41.30
2017-11-18T01:59:06.832Z,43.60
2017-11-18T02:01:33.426Z,43.17
2017-11-18T02:04:00.049Z,41.70
2017-11-18T02:06:26.663Z,42.27
2017-11-18T02:08:53.272Z,43.70
2017-11-18T02:11:19.865Z,42.90
2017-11-18T02:13:46.508Z,44.13
2017-11-18T02:16:13.106Z,42.97
2017-11-18T02:18:39.709Z,38.57
2017-11-18T02:21:06.334Z,42.10
2017-11-18T02:23:32.966Z,42.50
2017-11-18T02:25:59.786Z,47.97
2017-11-18T02:28:26.395Z,53.10
2017-11-18T02:30:53.007Z,53.97
2017-11-18T02:33:19.613Z,54.20
2017-11-18T02:35:46.227Z,49.17
2017-11-18T02:38:12.823Z,35.70
2017-11-18T02:40:39.525Z,40.17
2017-11-18T02:43:06.142Z,39.40
2017-11-18T02:45:32.748Z,37.40
2017-11-18T02:47:59.349Z,38.50
2017-11-18T02:50:25.973Z,37.43
2017-11-18T02:52:52.588Z,36.87
2017-11-18T02:55:19.180Z,37.87
2017-11-18T02:57:45.787Z,35.87
2017-11-18T03:00:12.391Z,36.87
2017-11-18T03:02:39.006Z,34.60
2017-11-18T03:05:05.605Z,37.03
2017-11-18T03:07:32.238Z,37.00
2017-11-18T03:09:58.886Z,34.20
2017-11-18T03:12:25.505Z,36.23
2017-11-18T03:14:52.115Z,36.07
2017-11-18T03:17:19.007Z,33.33
2017-11-18T03:19:45.599Z,36.13
2017-11-18T03:22:12.186Z,34.07
2017-11-18T03:24:38.823Z,36.17
2017-11-18T03:27:05.435Z,36.00
2017-11-18T03:29:32.093Z,33.50
2017-11-18T03:31:58.734Z,36.40
2017-11-18T03:34:25.438Z,35.47
2017-11-18T03:36:52.030Z,35.80
2017-11-18T03:39:18.655Z,34.70
2017-11-18T03:41:45.267Z,36.43
2017-11-18T03:44:11.954Z,37.70
2017-11-18T03:46:38.574Z,37.97
2017-11-18T03:49:05.185Z,37.30
2017-11-18T03:51:31.805Z,37.93
2017-11-18T03:53:58.462Z,35.53
2017-11-18T03:56:25.106Z,38.70
2017-11-18T03:58:51.737Z,39.20
2017-11-18T04:01:18.360Z,38.70
2017-11-18T04:03:45.292Z,39.20
2017-11-18T04:06:11.871Z,37.50
2017-11-18T04:08:38.516Z,38.40
2017-11-18T04:11:05.118Z,38.67
2017-11-18T04:13:31.722Z,39.10
2017-11-18T04:15:58.595Z,37.40
2017-11-18T04:18:25.200Z,38.20
2017-11-18T04:20:51.816Z,35.13
2017-11-18T04:23:18.437Z,38.20
2017-11-18T04:25:45.350Z,36.67
2017-11-18T04:28:12.019Z,37.70
2017-11-18T04:30:38.640Z,35.00
2017-11-18T04:33:05.287Z,36.30
2017-11-18T04:35:32.384Z,35.05
2017-11-18T04:37:58.972Z,37.83
2017-11-18T04:40:25.611Z,35.37
2017-11-18T04:42:52.213Z,35.37
2017-11-18T04:45:18.831Z,34.37
2017-11-18T04:47:45.441Z,33.83
2017-11-18T04:50:12.056Z,34.20
2017-11-18T04:52:38.678Z,35.87
2017-11-18T04:55:05.275Z,36.23
2017-11-18T04:57:31.895Z,34.97
2017-11-18T04:59:58.492Z,35.97
2017-11-18T05:02:25.078Z,33.60
2017-11-18T05:04:51.693Z,33.77
2017-11-18T05:07:18.312Z,32.27
2017-11-18T05:09:44.910Z,34.50
2017-11-18T05:12:11.537Z,34.97
2017-11-18T05:14:38.159Z,35.23
2017-11-18T05:17:04.760Z,36.07
2017-11-18T05:19:31.384Z,34.37
2017-11-18T05:21:57.969Z,34.30
2017-11-18T05:24:24.603Z,35.03
2017-11-18T05:26:51.219Z,31.67
2017-11-18T05:29:17.848Z,30.53
2017-11-18T05:31:44.453Z,31.30
2017-11-18T05:34:11.054Z,32.30
2017-11-18T05:36:37.691Z,28.03
2017-11-18T05:39:04.306Z,27.97
2017-11-18T05:41:30.900Z,30.30
2017-11-18T05:43:57.506Z,31.27
2017-11-18T05:46:24.118Z,29.20
2017-11-18T05:48:50.742Z,30.50
2017-11-18T05:51:17.358Z,28.70
2017-11-18T05:53:43.980Z,29.33
2017-11-18T05:56:10.566Z,30.47
2017-11-18T05:58:37.175Z,28.77
2017-11-18T06:01:03.773Z,31.70
2017-11-18T06:03:30.384Z,31.30
2017-11-18T06:05:57.027Z,29.60
2017-11-18T06:08:23.616Z,27.57
2017-11-18T06:10:50.233Z,29.90
2017-11-18T06:13:16.825Z,30.47
2017-11-18T06:15:43.443Z,31.00
2017-11-18T06:18:10.056Z,29.33
2017-11-18T06:20:36.863Z,28.93
2017-11-18T06:23:03.438Z,28.73
2017-11-18T06:25:30.072Z,28.43
2017-11-18T06:27:56.663Z,28.43
2017-11-18T06:30:23.259Z,28.50
2017-11-18T06:32:49.885Z,29.27
2017-11-18T06:35:16.506Z,28.30
2017-11-18T06:37:43.116Z,29.73
2017-11-18T06:40:09.749Z,25.53
2017-11-18T06:42:36.368Z,27.00
2017-11-18T06:45:02.977Z,28.33
2017-11-18T06:47:29.594Z,27.90
2017-11-18T06:49:56.222Z,28.30
2017-11-18T06:52:22.847Z,28.47
2017-11-18T06:54:49.446Z,26.10
2017-11-18T06:57:16.058Z,27.03
2017-11-18T06:59:42.645Z,26.00
2017-11-18T07:02:09.515Z,25.47
2017-11-18T07:04:36.126Z,26.50
2017-11-18T07:07:02.725Z,26.67
2017-11-18T07:09:29.325Z,26.90
2017-11-18T07:11:55.948Z,25.10
2017-11-18T07:14:22.571Z,25.07
2017-11-18T07:16:49.169Z,24.90
2017-11-18T07:19:15.789Z,23.27
2017-11-18T07:21:42.405Z,23.27
2017-11-18T07:24:09.051Z,24.77
2017-11-18T07:26:35.658Z,23.80
2017-11-18T07:29:02.275Z,23.80
2017-11-18T07:31:28.874Z,22.80
2017-11-18T07:33:55.478Z,22.60
2017-11-18T07:36:22.164Z,23.27
2017-11-18T07:38:48.794Z,23.70
2017-11-18T07:41:15.379Z,22.87
2017-11-18T07:43:42.002Z,22.47
2017-11-18T07:46:08.597Z,22.67
2017-11-18T07:48:35.195Z,25.20
2017-11-18T07:51:01.838Z,24.40
2017-11-18T07:53:28.436Z,24.63
2017-11-18T07:55:55.062Z,23.50
2017-11-18T07:58:21.648Z,25.07
2017-11-18T08:00:48.279Z,23.37
2017-11-18T08:03:14.877Z,24.10
2017-11-18T08:05:41.488Z,23.10
2017-11-18T08:08:08.153Z,22.90
2017-11-18T08:10:34.742Z,23.20
2017-11-18T08:13:01.428Z,23.17
2017-11-18T08:15:28.037Z,22.87
2017-11-18T08:17:54.650Z,22.97
2017-11-18T08:20:21.327Z,24.40
2017-11-18T08:22:47.963Z,21.77
2017-11-18T08:25:14.598Z,21.70
2017-11-18T08:27:41.218Z,24.00
2017-11-18T08:30:07.951Z,22.17
2017-11-18T08:32:34.582Z,23.27
2017-11-18T08:35:01.202Z,23.07
2017-11-18T08:37:27.806Z,25.30
2017-11-18T08:39:54.573Z,26.20
2017-11-18T08:42:21.170Z,27.03
2017-11-18T08:44:47.870Z,27.60
2017-11-18T08:47:14.516Z,25.40
2017-11-18T08:49:41.186Z,23.90
2017-11-18T08:52:07.812Z,23.30
2017-11-18T08:54:34.443Z,22.77
2017-11-18T08:57:01.041Z,19.80
2017-11-18T08:59:27.686Z,22.57
2017-11-18T09:01:54.286Z,22.23
2017-11-18T09:04:20.898Z,21.67
2017-11-18T09:06:47.834Z,23.30
2017-11-18T09:09:14.482Z,22.30
2017-11-18T09:11:41.134Z,22.40
2017-11-18T09:14:07.736Z,21.80
2017-11-18T09:16:34.325Z,22.83
2017-11-18T09:19:00.944Z,23.10
2017-11-18T09:21:27.579Z,22.03
2017-11-18T09:23:54.202Z,20.93
2017-11-18T09:26:20.829Z,22.60
2017-11-18T09:28:47.466Z,22.07
2017-11-18T09:31:14.087Z,21.37
2017-11-18T09:33:40.708Z,23.50
2017-11-18T09:36:07.389Z,23.53
2017-11-18T09:38:34.081Z,22.17
2017-11-18T09:41:00.699Z,20.83
2017-11-18T09:43:27.289Z,19.30
2017-11-18T09:45:53.941Z,19.40
2017-11-18T09:48:20.574Z,18.27
2017-11-18T09:50:47.191Z,19.53
2017-11-18T09:53:13.817Z,20.67
2017-11-18T09:55:40.413Z,19.83
2017-11-18T09:58:07.380Z,19.77
2017-11-18T10:00:34.058Z,19.33
2017-11-18T10:03:00.783Z,20.20
2017-11-18T10:05:28.037Z,19.57
2017-11-18T10:07:54.668Z,21.10
2017-11-18T10:10:21.320Z,21.00
2017-11-18T10:12:48.139Z,18.17
2017-11-18T10:15:14.870Z,18.33
2017-11-18T10:17:41.498Z,19.17
2017-11-18T10:20:08.110Z,19.77
2017-11-18T10:22:34.763Z,20.53
2017-11-18T10:25:01.404Z,21.37
2017-11-18T10:27:28.093Z,20.40
2017-11-18T10:29:54.773Z,18.90
2017-11-18T10:32:21.384Z,18.43
2017-11-18T10:34:48.034Z,18.60
2017-11-18T10:37:14.687Z,15.80
2017-11-18T10:39:41.372Z,17.77
2017-11-18T10:42:08.048Z,15.50
2017-11-18T10:44:34.933Z,12.97
2017-11-18T10:47:01.644Z,15.30
2017-11-18T10:49:28.267Z,14.83
2017-11-18T10:51:54.991Z,12.70
2017-11-18T10:54:21.593Z,12.80
2017-11-18T10:56:48.242Z,12.60
2017-11-18T10:59:14.834Z,13.03
2017-11-18T11:01:41.472Z,13.57
2017-11-18T11:04:08.115Z,12.00
2017-11-18T11:06:34.727Z,12.40
2017-11-18T11:09:01.388Z,14.07
2017-11-18T11:11:28.029Z,12.43
2017-11-18T11:13:54.661Z,14.60
2017-11-18T11:16:21.259Z,13.00
2017-11-18T11:18:47.887Z,14.00
2017-11-18T11:21:14.493Z,12.23
2017-11-18T11:23:41.417Z,10.40
2017-11-18T11:26:08.045Z,10.10
2017-11-18T11:28:34.700Z,10.80
2017-11-18T11:31:01.352Z,9.13
2017-11-18T11:33:27.949Z,8.03
2017-11-18T11:35:54.619Z,6.30
2017-11-18T11:38:21.245Z,8.60
2017-11-18T11:40:47.866Z,8.80
2017-11-18T11:43:14.478Z,10.60
2017-11-18T11:45:41.194Z,8.63
2017-11-18T11:48:07.800Z,6.57
2017-11-18T11:50:34.433Z,4.17
2017-11-18T11:53:01.132Z,4.30
2017-11-18T11:55:27.739Z,4.20
2017-11-18T11:57:54.377Z,4.10
2017-11-18T12:00:21.008Z,4.63
2017-11-18T12:02:47.806Z,5.30
2017-11-18T12:05:14.429Z,4.90
2017-11-18T12:07:41.040Z,5.67
2017-11-18T12:10:07.707Z,5.40
2017-11-18T12:12:34.338Z,6.00
2017-11-18T12:15:00.972Z,5.17
2017-11-18T12:17:27.566Z,6.10
2017-11-18T12:19:54.247Z,6.90
2017-11-18T12:22:20.946Z,6.03
2017-11-18T12:24:47.544Z,6.40
2017-11-18T12:27:14.191Z,6.70
2017-11-18T12:29:40.845Z,5.47
2017-11-18T12:32:07.444Z,5.77
2017-11-18T12:34:34.109Z,6.17
2017-11-18T12:37:00.970Z,5.63
2017-11-18T12:39:27.590Z,5.70
2017-11-18T12:41:54.262Z,4.70
2017-11-18T12:44:21.032Z,5.03
2017-11-18T12:46:47.665Z,4.83
2017-11-18T12:49:14.277Z,5.40
2017-11-18T12:51:40.879Z,4.30
2017-11-18T12:54:07.499Z,4.93
2017-11-18T12:56:34.120Z,4.73
2017-11-18T12:59:00.724Z,4.50
2017-11-18T13:01:27.331Z,4.73
2017-11-18T13:03:54.048Z,3.50
2017-11-18T13:06:20.681Z,3.70
2017-11-18T13:08:47.554Z,5.07
2017-11-18T13:11:14.147Z,4.80
2017-11-18T13:13:40.911Z,5.33
2017-11-18T13:16:07.518Z,4.80
2017-11-18T13:18:34.153Z,5.30
2017-11-18T13:21:00.813Z,5.60
2017-11-18T13:23:27.407Z,4.80
2017-11-18T13:25:54.060Z,6.10
2017-11-18T13:28:20.690Z,5.80
2017-11-18T13:30:47.563Z,7.13
2017-11-18T13:33:14.205Z,5.93
2017-11-18T13:35:40.866Z,6.43
2017-11-18T13:38:07.514Z,6.00
2017-11-18T13:40:34.110Z,6.90
2017-11-18T13:43:00.726Z,5.70
2017-11-18T13:45:27.359Z,6.17
2017-11-18T13:47:54.008Z,4.60
2017-11-18T13:50:20.612Z,6.20
2017-11-18T13:52:47.221Z,8.40
2017-11-18T13:55:13.881Z,5.60
2017-11-18T13:57:40.521Z,5.40
2017-11-18T14:00:07.118Z,4.80
2017-11-18T14:02:33.716Z,5.23
2017-11-18T14:05:00.331Z,4.80
2017-11-18T14:07:26.953Z,4.70
2017-11-18T14:09:54.622Z,4.90
2017-11-18T14:12:21.447Z,4.23
2017-11-18T14:14:48.443Z,4.30
2017-11-18T14:17:15.272Z,3.63
2017-11-18T14:19:41.904Z,4.80
2017-11-18T14:22:08.529Z,4.47
2017-11-18T14:24:35.312Z,4.13
2017-11-18T14:27:12.284Z,5.20
2017-11-18T14:29:38.982Z,4.10
2017-11-18T14:32:05.602Z,5.33
2017-11-18T14:34:32.249Z,4.90
2017-11-18T14:36:58.849Z,4.13
2017-11-18T14:39:25.495Z,4.27
2017-11-18T14:41:52.246Z,4.63
2017-11-18T14:44:18.946Z,5.37
2017-11-18T14:46:45.553Z,5.57
2017-11-18T14:49:12.214Z,5.10
2017-11-18T14:51:38.825Z,4.87
2017-11-18T14:54:05.433Z,5.77
2017-11-18T14:56:32.109Z,6.67
2017-11-18T14:58:58.743Z,6.87
2017-11-18T15:01:25.402Z,6.57
2017-11-18T15:03:52.153Z,7.47
2017-11-18T15:06:18.767Z,6.40
2017-11-18T15:08:45.417Z,6.27
2017-11-18T15:11:12.062Z,6.10
2017-11-18T15:13:38.668Z,5.80
2017-11-18T15:16:11.071Z,5.47
2017-11-18T15:18:47.574Z,5.20
2017-11-18T15:21:19.987Z,5.77
2017-11-18T15:24:07.285Z,6.43
2017-11-18T15:26:39.598Z,6.20
2017-11-18T15:29:22.874Z,6.30
2017-11-18T15:31:55.208Z,5.70
2017-11-18T15:34:27.829Z,6.27
2017-11-18T15:36:57.080Z,5.77
2017-11-18T15:39:23.746Z,5.43
2017-11-18T15:41:50.771Z,6.07
2017-11-18T15:44:18.030Z,5.47
2017-11-18T15:46:50.279Z,5.30
2017-11-18T15:49:32.618Z,4.97
2017-11-18T15:51:59.713Z,4.33
2017-11-18T15:54:32.216Z,5.17
2017-11-18T15:57:13.714Z,5.13
2017-11-18T15:59:40.317Z,4.60
2017-11-18T16:02:08.815Z,5.20
2017-11-18T16:04:37.160Z,4.57
2017-11-18T16:07:20.618Z,4.77
2017-11-18T16:09:47.303Z,5.13
2017-11-18T16:12:13.882Z,5.10
2017-11-18T16:14:40.474Z,4.13
2017-11-18T16:17:07.088Z,5.30
2017-11-18T16:19:33.682Z,5.37
2017-11-18T16:22:00.438Z,4.97
2017-11-18T16:24:27.161Z,4.23
2017-11-18T16:26:54.155Z,4.00
2017-11-18T16:29:20.773Z,4.47
2017-11-18T16:31:47.454Z,4.40
2017-11-18T16:34:14.071Z,3.77
2017-11-18T16:36:40.683Z,5.13
2017-11-18T16:39:07.309Z,4.10
2017-11-18T16:41:34.012Z,3.87
2017-11-18T16:44:00.657Z,4.10
2017-11-18T16:46:27.271Z,4.67
2017-11-18T16:48:54.830Z,4.40
2017-11-18T16:51:21.429Z,4.30
2017-11-18T16:53:48.054Z,4.23
2017-11-18T16:56:14.668Z,5.80
2017-11-18T16:58:41.290Z,4.60
2017-11-18T17:01:07.896Z,3.90
2017-11-18T17:03:34.538Z,5.00
2017-11-18T17:06:01.447Z,4.47
2017-11-18T17:08:28.114Z,3.80
2017-11-18T17:10:54.711Z,4.90
2017-11-18T17:13:21.359Z,5.53
2017-11-18T17:15:47.962Z,4.13
2017-11-18T17:18:14.582Z,5.30
2017-11-18T17:20:41.237Z,5.50
2017-11-18T17:23:08.312Z,5.07
2017-11-18T17:25:34.933Z,4.70
2017-11-18T17:28:01.588Z,4.60
2017-11-18T17:30:29.034Z,4.03
2017-11-18T17:32:55.659Z,4.00
2017-11-18T17:35:22.339Z,3.77
2017-11-18T17:37:49.027Z,5.07
2017-11-18T17:40:15.631Z,4.80
2017-11-18T17:42:42.295Z,3.93
2017-11-18T17:45:08.965Z,4.07
2017-11-18T17:47:35.646Z,4.50
2017-11-18T17:50:02.300Z,5.10
2017-11-18T17:52:28.894Z,4.20
2017-11-18T17:54:55.654Z,3.60
2017-11-18T17:57:22.287Z,4.23
2017-11-18T17:59:48.885Z,4.37
2017-11-18T18:02:15.815Z,3.80
2017-11-18T18:04:42.409Z,4.00
2017-11-18T18:07:09.170Z,4.30
2017-11-18T18:09:35.891Z,4.20
2017-11-18T18:12:02.570Z,3.90
2017-11-18T18:14:29.320Z,3.40
2017-11-18T18:16:55.985Z,4.60
2017-11-18T18:19:22.585Z,4.00
2017-11-18T18:21:49.631Z,3.43
2017-11-18T18:24:16.240Z,3.80
2017-11-18T18:26:42.920Z,2.70
2017-11-18T18:29:09.531Z,3.70
2017-11-18T18:31:36.209Z,3.30
2017-11-18T18:34:02.909Z,2.93
2017-11-18T18:36:29.555Z,3.17
2017-11-18T18:38:56.216Z,3.30
2017-11-18T18:41:22.846Z,3.00
2017-11-18T18:43:49.464Z,3.90
2017-11-18T18:46:16.087Z,3.60
2017-11-18T18:48:43.014Z,3.53
2017-11-18T18:51:09.640Z,4.30
2017-11-18T18:53:36.271Z,3.93
2017-11-18T18:56:02.950Z,3.80
2017-11-18T18:58:29.990Z,3.00
2017-11-18T19:00:56.575Z,3.33
2017-11-18T19:03:23.239Z,3.20
2017-11-18T19:05:49.840Z,3.40
2017-11-18T19:08:16.451Z,3.67
2017-11-18T19:10:43.091Z,3.97
2017-11-18T19:13:09.816Z,3.47
2017-11-18T19:15:36.406Z,4.00
2017-11-18T19:18:03.103Z,3.90
2017-11-18T19:20:29.757Z,4.10
2017-11-18T19:22:56.449Z,11.70
2017-11-18T19:25:23.110Z,8.63
2017-11-18T19:27:49.838Z,3.70
2017-11-18T19:30:16.460Z,5.40
2017-11-18T19:32:43.140Z,4.93
2017-11-18T19:35:09.785Z,3.63
2017-11-18T19:37:36.416Z,3.60
2017-11-18T19:40:03.031Z,4.57
2017-11-18T19:42:29.643Z,4.20
2017-11-18T19:44:56.338Z,4.50
2017-11-18T19:47:22.939Z,3.50
2017-11-18T19:49:49.572Z,4.73
2017-11-18T19:52:16.222Z,4.77
2017-11-18T19:54:42.861Z,5.33
2017-11-18T19:57:09.458Z,4.47
2017-11-18T19:59:36.147Z,4.90
2017-11-18T20:02:02.803Z,4.63
2017-11-18T20:04:29.430Z,3.87
2017-11-18T20:06:56.087Z,4.57
2017-11-18T20:09:22.741Z,4.90
2017-11-18T20:11:49.360Z,4.67
2017-11-18T20:14:15.989Z,5.07
2017-11-18T20:16:42.666Z,5.23
2017-11-18T20:19:09.257Z,5.27
2017-11-18T20:21:35.929Z,5.20
2017-11-18T20:24:02.536Z,4.73
2017-11-18T20:26:29.145Z,4.70
2017-11-18T20:28:55.782Z,4.90
2017-11-18T20:31:22.425Z,4.70
2017-11-18T20:33:49.014Z,5.40
2017-11-18T20:36:15.708Z,5.20
2017-11-18T20:38:42.334Z,5.00
2017-11-18T20:41:08.918Z,5.40
2017-11-18T20:43:35.619Z,5.67
2017-11-18T20:46:02.494Z,5.77
2017-11-18T20:48:29.142Z,5.87
2017-11-18T20:50:55.751Z,6.07
2017-11-18T20:53:22.522Z,6.33
2017-11-18T20:55:49.441Z,4.93
2017-11-18T20:58:16.079Z,5.57
2017-11-18T21:00:42.688Z,5.83
2017-11-18T21:03:09.502Z,6.22
2017-11-18T21:05:36.139Z,5.70
2017-11-18T21:08:02.855Z,6.23
2017-11-18T21:10:29.486Z,5.63
2017-11-18T21:13:07.998Z,5.90
2017-11-18T21:15:37.104Z,5.60
2017-11-18T21:18:06.823Z,5.77
2017-11-18T21:20:33.566Z,5.90
2017-11-18T21:23:00.203Z,5.60
2017-11-18T21:25:26.855Z,6.00
2017-11-18T21:27:53.507Z,6.10
2017-11-18T21:30:20.248Z,5.77
2017-11-18T21:32:46.858Z,5.80
2017-11-18T21:35:13.445Z,5.90
2017-11-18T21:37:40.595Z,6.77
2017-11-18T21:40:07.194Z,6.97
2017-11-18T21:42:33.969Z,6.90
2017-11-18T21:45:00.620Z,6.23
2017-11-18T21:47:27.311Z,6.80
2017-11-18T21:49:56.444Z,6.83
2017-11-18T21:52:23.135Z,7.50
2017-11-18T21:54:49.741Z,8.27
2017-11-18T21:57:16.383Z,6.70
2017-11-18T21:59:43.066Z,7.80
2017-11-18T22:02:09.686Z,7.07
2017-11-18T22:04:36.346Z,7.97
2017-11-18T22:07:02.978Z,7.37
2017-11-18T22:09:29.675Z,8.07
2017-11-18T22:11:56.363Z,6.73
2017-11-18T22:14:22.966Z,7.37
2017-11-18T22:16:49.579Z,9.10
2017-11-18T22:19:16.338Z,8.70
2017-11-18T22:21:42.969Z,8.70
2017-11-18T22:24:09.646Z,9.70
2017-11-18T22:26:36.249Z,8.63
2017-11-18T22:29:02.862Z,8.83
2017-11-18T22:31:29.639Z,9.17
2017-11-18T22:33:56.373Z,9.30
2017-11-18T22:36:22.972Z,10.10
2017-11-18T22:38:49.625Z,9.93
2017-11-18T22:41:16.224Z,10.57
2017-11-18T22:43:43.192Z,9.30
2017-11-18T22:46:09.811Z,8.70
2017-11-18T22:48:36.406Z,9.80
2017-11-18T22:51:04.883Z,10.23
2017-11-18T22:53:31.621Z,10.00
2017-11-18T22:56:01.740Z,9.17
2017-11-18T22:58:28.581Z,9.20
2017-11-18T23:00:55.262Z,9.40
2017-11-18T23:03:21.942Z,9.23
2017-11-18T23:05:49.726Z,9.60
2017-11-18T23:08:17.263Z,9.27
2017-11-18T23:10:44.840Z,9.63
2017-11-18T23:13:11.520Z,10.10
2017-11-18T23:15:38.168Z,9.67
2017-11-18T23:18:06.425Z,9.50
2017-11-18T23:20:33.178Z,9.33
2017-11-18T23:23:01.123Z,10.40
2017-11-18T23:25:27.993Z,9.97
2017-11-18T23:27:55.068Z,9.20
2017-11-18T23:30:21.696Z,10.30
2017-11-18T23:32:48.413Z,10.60
2017-11-18T23:35:15.953Z,11.00
2017-11-18T23:37:42.613Z,10.70
2017-11-18T23:40:11.360Z,10.87
2017-11-18T23:42:38.700Z,12.10
2017-11-18T23:45:05.431Z,12.00
2017-11-18T23:47:32.610Z,11.97
2017-11-18T23:49:59.810Z,11.90
2017-11-18T23:52:32.966Z,11.17
2017-11-18T23:55:00.511Z,11.40
2017-11-18T23:57:29.240Z,11.57
2017-11-18T23:59:55.990Z,11.77
